createdAt,value
2018-12-16T00:01:41.696Z,80.67
2018-12-16T00:04:10.601Z,79.71
2018-12-16T00:06:39.175Z,80.83
2018-12-16T00:09:07.612Z,81.74
2018-12-16T00:11:36.907Z,82.16
2018-12-16T00:14:05.406Z,81.64
2018-12-16T00:16:33.640Z,82.16
2018-12-16T00:19:02.019Z,81.90
2018-12-16T00:21:31.372Z,82.79
2018-12-16T00:24:00.683Z,82.24
2018-12-16T00:26:40.028Z,82.10
2018-12-16T00:29:08.484Z,83.08
2018-12-16T00:31:36.946Z,83.66
2018-12-16T00:34:05.248Z,84.10
2018-12-16T00:36:33.565Z,85.74
2018-12-16T00:39:01.964Z,86.07
2018-12-16T00:41:30.136Z,86.41
2018-12-16T00:43:58.413Z,87.78
2018-12-16T00:46:26.676Z,87.99
2018-12-16T00:48:55.066Z,87.45
2018-12-16T00:51:23.779Z,87.86
2018-12-16T00:53:52.079Z,87.37
2018-12-16T00:56:20.563Z,87.19
2018-12-16T00:58:48.969Z,87.07
2018-12-16T01:01:17.450Z,86.76
2018-12-16T01:03:45.751Z,87.04
2018-12-16T01:06:13.983Z,86.40
2018-12-16T01:08:42.441Z,86.30
2018-12-16T01:11:10.679Z,85.32
2018-12-16T01:13:39.126Z,85.39
2018-12-16T01:16:07.431Z,84.95
2018-12-16T01:18:35.748Z,84.98
2018-12-16T01:21:04.093Z,84.52
2018-12-16T01:23:32.372Z,83.86
2018-12-16T01:26:00.939Z,81.87
2018-12-16T01:28:29.346Z,82.74
2018-12-16T01:30:57.700Z,83.13
2018-12-16T01:33:26.047Z,84.18
2018-12-16T01:35:54.624Z,85.65
2018-12-16T01:38:23.018Z,86.52
2018-12-16T01:40:51.295Z,85.33
2018-12-16T01:43:19.631Z,86.29
2018-12-16T01:45:48.043Z,85.75
2018-12-16T01:48:16.374Z,85.66
2018-12-16T01:50:44.751Z,87.16
2018-12-16T01:53:13.100Z,88.38
2018-12-16T01:55:41.575Z,88.63
2018-12-16T01:58:09.918Z,89.88
2018-12-16T02:00:38.943Z,91.04
2018-12-16T02:03:07.231Z,90.92
2018-12-16T02:05:35.521Z,90.45
2018-12-16T02:08:03.911Z,90.26
2018-12-16T02:10:32.181Z,90.72
2018-12-16T02:13:00.608Z,90.97
2018-12-16T02:15:29.059Z,89.78
2018-12-16T02:17:57.678Z,91.45
2018-12-16T02:20:25.962Z,89.46
2018-12-16T02:22:57.072Z,89.93
2018-12-16T02:25:24.709Z,90.10
2018-12-16T02:27:53.324Z,91.43
2018-12-16T02:30:27.329Z,91.87
2018-12-16T02:32:56.092Z,92.04
2018-12-16T02:35:24.436Z,91.63
2018-12-16T02:37:52.869Z,91.67
2018-12-16T02:40:21.480Z,92.54
2018-12-16T02:42:49.798Z,91.88
2018-12-16T02:45:19.391Z,91.56
2018-12-16T02:47:49.110Z,91.40
2018-12-16T02:50:17.898Z,92.14
2018-12-16T02:52:46.533Z,91.66
2018-12-16T02:55:14.991Z,90.19
2018-12-16T02:57:43.398Z,89.20
2018-12-16T03:00:11.944Z,88.75
2018-12-16T03:02:41.446Z,88.04
2018-12-16T03:05:09.774Z,87.76
2018-12-16T03:07:38.349Z,87.75
2018-12-16T03:10:07.211Z,87.03
2018-12-16T03:12:35.715Z,86.95
2018-12-16T03:15:04.358Z,87.15
2018-12-16T03:17:33.517Z,87.04
2018-12-16T03:20:02.025Z,87.00
2018-12-16T03:22:30.479Z,87.57
2018-12-16T03:24:58.687Z,87.82
2018-12-16T03:27:27.167Z,87.60
2018-12-16T03:29:55.490Z,87.31
2018-12-16T03:32:23.916Z,85.54
2018-12-16T03:34:52.337Z,84.78
2018-12-16T03:37:20.629Z,84.72
2018-12-16T03:39:48.935Z,83.54
2018-12-16T03:42:17.330Z,82.94
2018-12-16T03:44:45.664Z,82.12
2018-12-16T03:47:14.025Z,81.74
2018-12-16T03:49:42.433Z,82.32
2018-12-16T03:52:10.918Z,82.00
2018-12-16T03:54:39.214Z,81.58
2018-12-16T03:57:07.564Z,82.98
2018-12-16T03:59:35.910Z,84.54
2018-12-16T04:02:04.236Z,84.04
2018-12-16T04:04:32.571Z,83.41
2018-12-16T04:07:00.892Z,83.70
2018-12-16T04:09:29.182Z,82.23
2018-12-16T04:11:57.432Z,81.87
2018-12-16T04:14:25.608Z,83.53
2018-12-16T04:16:53.900Z,85.09
2018-12-16T04:19:22.301Z,85.73
2018-12-16T04:24:18.840Z,86.27
2018-12-16T04:26:47.142Z,86.86
2018-12-16T04:29:15.545Z,86.02
2018-12-16T04:31:44.064Z,86.28
2018-12-16T04:34:12.668Z,87.12
2018-12-16T04:36:41.160Z,87.21
2018-12-16T04:39:10.154Z,85.88
2018-12-16T04:41:38.717Z,86.15
2018-12-16T04:44:07.318Z,86.27
2018-12-16T04:46:35.861Z,85.64
2018-12-16T04:49:04.231Z,84.95
2018-12-16T04:51:39.204Z,84.97
2018-12-16T04:54:07.681Z,84.14
2018-12-16T04:56:36.106Z,83.71
2018-12-16T04:59:04.353Z,83.45
2018-12-16T05:01:32.673Z,81.92
2018-12-16T05:04:00.924Z,83.27
2018-12-16T05:06:29.998Z,82.00
2018-12-16T05:08:58.401Z,81.26
2018-12-16T05:11:26.759Z,82.91
2018-12-16T05:13:55.713Z,83.69
2018-12-16T05:16:23.853Z,84.19
2018-12-16T05:18:52.252Z,83.93
2018-12-16T05:21:20.661Z,85.13
2018-12-16T05:23:49.005Z,85.45
2018-12-16T05:26:17.531Z,85.67
2018-12-16T05:28:46.323Z,86.29
2018-12-16T05:31:14.949Z,87.08
2018-12-16T05:33:43.339Z,87.30
2018-12-16T05:36:11.892Z,88.31
2018-12-16T05:38:40.373Z,87.55
2018-12-16T05:41:08.904Z,85.75
2018-12-16T05:43:37.359Z,83.58
2018-12-16T05:46:05.737Z,85.17
2018-12-16T05:48:34.268Z,85.31
2018-12-16T05:51:02.727Z,83.68
2018-12-16T05:53:31.023Z,81.45
2018-12-16T05:55:59.972Z,82.60
2018-12-16T05:58:28.657Z,83.50
2018-12-16T06:00:57.077Z,84.73
2018-12-16T06:03:25.509Z,85.68
2018-12-16T06:05:54.145Z,86.03
2018-12-16T06:08:23.503Z,86.14
2018-12-16T06:10:51.961Z,86.47
2018-12-16T06:13:20.240Z,87.80
2018-12-16T06:15:48.454Z,87.80
2018-12-16T06:18:17.501Z,87.83
2018-12-16T06:20:45.982Z,87.58
2018-12-16T06:23:14.273Z,87.89
2018-12-16T06:25:42.752Z,87.71
2018-12-16T06:28:11.331Z,86.92
2018-12-16T06:30:40.215Z,86.09
2018-12-16T06:33:08.503Z,85.44
2018-12-16T06:35:37.304Z,86.30
2018-12-16T06:38:05.610Z,86.69
2018-12-16T06:40:33.836Z,88.49
2018-12-16T06:43:01.987Z,87.26
2018-12-16T06:45:30.564Z,84.81
2018-12-16T06:47:58.806Z,83.62
2018-12-16T06:50:27.111Z,82.63
2018-12-16T06:52:55.420Z,82.73
2018-12-16T06:55:23.893Z,81.07
2018-12-16T06:57:52.174Z,79.92
2018-12-16T07:00:21.308Z,81.06
2018-12-16T07:02:53.979Z,80.25
2018-12-16T07:05:22.657Z,81.39
2018-12-16T07:07:51.189Z,78.43
2018-12-16T07:10:19.612Z,79.44
2018-12-16T07:12:48.069Z,77.86
2018-12-16T07:15:16.647Z,78.20
2018-12-16T07:17:45.061Z,78.41
2018-12-16T07:20:13.427Z,78.62
2018-12-16T07:22:41.881Z,78.01
2018-12-16T07:25:10.192Z,76.92
2018-12-16T07:27:39.338Z,75.15
2018-12-16T07:30:08.441Z,77.17
2018-12-16T07:32:36.824Z,76.64
2018-12-16T07:35:05.861Z,76.33
2018-12-16T07:37:34.238Z,75.82
2018-12-16T07:40:02.684Z,76.73
2018-12-16T07:42:31.055Z,76.65
2018-12-16T07:44:59.492Z,76.32
2018-12-16T07:47:27.867Z,76.84
2018-12-16T07:49:56.549Z,76.89
2018-12-16T07:52:24.850Z,76.51
2018-12-16T07:54:54.133Z,76.62
2018-12-16T07:57:22.755Z,76.64
2018-12-16T07:59:51.770Z,76.02
2018-12-16T08:02:21.037Z,77.58
2018-12-16T08:04:49.749Z,76.66
2018-12-16T08:07:18.333Z,76.07
2018-12-16T08:09:46.833Z,77.58
2018-12-16T08:12:15.121Z,76.28
2018-12-16T08:14:43.721Z,76.67
2018-12-16T08:17:12.134Z,75.91
2018-12-16T08:19:40.446Z,75.69
2018-12-16T08:22:08.816Z,76.99
2018-12-16T08:24:39.400Z,77.08
2018-12-16T08:27:07.794Z,77.50
2018-12-16T08:29:36.853Z,79.05
2018-12-16T08:32:05.391Z,77.87
2018-12-16T08:34:33.653Z,78.63
2018-12-16T08:37:02.215Z,79.57
2018-12-16T08:39:30.628Z,79.00
2018-12-16T08:41:59.203Z,80.70
2018-12-16T08:44:27.829Z,80.61
2018-12-16T08:46:56.448Z,80.65
2018-12-16T08:49:25.043Z,81.75
2018-12-16T08:51:53.513Z,81.16
2018-12-16T08:54:21.864Z,81.44
2018-12-16T08:56:50.318Z,81.74
2018-12-16T08:59:19.661Z,83.15
2018-12-16T09:01:48.097Z,84.43
2018-12-16T09:04:16.850Z,85.42
2018-12-16T09:06:45.158Z,85.82
2018-12-16T09:09:13.887Z,86.22
2018-12-16T09:11:42.478Z,86.00
2018-12-16T09:14:10.878Z,87.38
2018-12-16T09:16:39.216Z,87.33
2018-12-16T09:19:07.485Z,87.46
2018-12-16T09:21:36.082Z,87.06
2018-12-16T09:24:04.800Z,87.65
2018-12-16T09:26:34.125Z,88.16
2018-12-16T09:29:03.165Z,89.48
2018-12-16T09:31:31.912Z,90.77
2018-12-16T09:34:00.538Z,91.13
2018-12-16T09:36:29.119Z,91.31
2018-12-16T09:38:57.377Z,91.47
2018-12-16T09:41:26.092Z,91.73
2018-12-16T09:43:54.656Z,91.70
2018-12-16T09:46:23.728Z,92.14
2018-12-16T09:48:52.092Z,93.54
2018-12-16T09:51:20.787Z,93.50
2018-12-16T09:53:49.240Z,93.42
2018-12-16T09:56:17.843Z,92.87
2018-12-16T09:58:46.255Z,92.27
2018-12-16T10:01:14.495Z,93.33
2018-12-16T10:03:42.951Z,93.92
2018-12-16T10:06:11.637Z,93.72
2018-12-16T10:08:40.371Z,93.98
2018-12-16T10:11:08.749Z,94.46
2018-12-16T10:13:37.034Z,94.66
2018-12-16T10:16:05.785Z,94.55
2018-12-16T10:18:34.001Z,94.57
2018-12-16T10:21:02.275Z,94.97
2018-12-16T10:23:30.859Z,94.66
2018-12-16T10:25:59.246Z,94.50
2018-12-16T10:28:28.643Z,94.71
2018-12-16T10:30:58.000Z,95.23
2018-12-16T10:33:26.851Z,94.81
2018-12-16T10:35:55.363Z,95.29
2018-12-16T10:38:23.789Z,94.55
2018-12-16T10:40:52.242Z,94.31
2018-12-16T10:43:20.649Z,94.73
2018-12-16T10:45:49.116Z,93.83
2018-12-16T10:48:17.621Z,93.55
2018-12-16T10:50:45.879Z,93.73
2018-12-16T10:53:14.468Z,93.51
2018-12-16T10:55:43.031Z,93.36
2018-12-16T10:58:11.585Z,93.22
2018-12-16T11:01:01.639Z,93.97
2018-12-16T11:03:30.050Z,95.29
2018-12-16T11:05:58.843Z,94.11
2018-12-16T11:08:40.487Z,94.56
2018-12-16T11:11:22.933Z,94.15
2018-12-16T11:13:52.770Z,94.95
2018-12-16T11:16:21.040Z,93.98
2018-12-16T11:19:04.409Z,93.87
2018-12-16T11:21:33.846Z,94.09
2018-12-16T11:24:02.396Z,93.21
2018-12-16T11:26:34.102Z,93.32
2018-12-16T11:29:05.644Z,93.02
2018-12-16T11:31:33.999Z,92.93
2018-12-16T11:34:15.124Z,92.70
2018-12-16T11:36:43.496Z,94.20
2018-12-16T11:39:11.815Z,93.86
2018-12-16T11:41:40.414Z,92.80
2018-12-16T11:44:08.901Z,93.22
2018-12-16T11:46:37.490Z,92.76
2018-12-16T11:49:06.542Z,92.32
2018-12-16T11:51:35.922Z,91.60
2018-12-16T11:54:05.585Z,91.95
2018-12-16T11:56:34.247Z,92.13
2018-12-16T11:59:03.105Z,92.37
2018-12-16T12:01:31.570Z,93.02
2018-12-16T12:04:02.087Z,92.23
2018-12-16T12:06:30.847Z,92.05
2018-12-16T12:08:59.076Z,91.78
2018-12-16T12:11:27.951Z,91.76
2018-12-16T12:13:56.427Z,91.82
2018-12-16T12:16:24.923Z,91.98
2018-12-16T12:19:00.352Z,92.34
2018-12-16T12:21:28.998Z,91.95
2018-12-16T12:23:57.481Z,91.53
2018-12-16T12:26:25.896Z,92.01
2018-12-16T12:28:54.293Z,92.19
2018-12-16T12:31:22.878Z,92.60
2018-12-16T12:33:51.496Z,92.21
2018-12-16T12:36:20.106Z,91.19
2018-12-16T12:38:56.367Z,91.21
2018-12-16T12:41:24.729Z,90.77
2018-12-16T12:43:52.980Z,90.93
2018-12-16T12:46:21.472Z,91.43
2018-12-16T12:51:37.005Z,91.25
2018-12-16T12:54:06.727Z,90.46
2018-12-16T12:56:35.602Z,90.46
2018-12-16T12:59:04.231Z,90.09
2018-12-16T13:01:55.587Z,90.73
2018-12-16T13:04:39.082Z,90.43
2018-12-16T13:07:11.579Z,90.79
2018-12-16T13:09:56.490Z,90.46
2018-12-16T13:12:28.857Z,90.86
2018-12-16T13:15:36.265Z,91.60
2018-12-16T13:18:21.310Z,89.84
2018-12-16T13:21:02.135Z,89.91
2018-12-16T13:23:45.137Z,89.00
2018-12-16T13:26:14.882Z,89.93
2018-12-16T13:28:56.637Z,88.87
2018-12-16T13:31:39.699Z,88.61
2018-12-16T13:34:08.126Z,89.23
2018-12-16T13:36:54.360Z,90.15
2018-12-16T13:39:46.418Z,89.98
2018-12-16T13:42:27.870Z,89.70
2018-12-16T13:45:13.382Z,88.64
2018-12-16T13:47:42.231Z,88.85
2018-12-16T13:50:31.154Z,90.48
2018-12-16T13:52:59.587Z,89.03
2018-12-16T13:55:28.551Z,89.39
2018-12-16T13:58:05.308Z,89.12
2018-12-16T14:00:33.847Z,88.92
2018-12-16T14:03:02.740Z,88.62
2018-12-16T14:05:47.827Z,89.02
2018-12-16T14:08:16.603Z,88.10
2018-12-16T14:10:57.885Z,88.43
2018-12-16T14:13:27.164Z,88.91
2018-12-16T14:15:55.885Z,89.98
2018-12-16T14:18:37.047Z,90.09
2018-12-16T14:21:13.461Z,90.40
2018-12-16T14:23:52.220Z,90.79
2018-12-16T14:26:31.340Z,90.39
2018-12-16T14:28:59.796Z,90.71
2018-12-16T14:31:28.227Z,90.39
2018-12-16T14:34:04.246Z,91.90
2018-12-16T14:36:34.526Z,91.66
2018-12-16T14:39:29.166Z,90.38
2018-12-16T14:41:57.761Z,89.74
2018-12-16T14:44:40.083Z,89.92
2018-12-16T14:47:30.664Z,90.46
2018-12-16T14:50:11.838Z,90.99
2018-12-16T14:52:43.206Z,89.89
2018-12-16T14:55:26.639Z,90.50
2018-12-16T14:58:02.567Z,91.02
2018-12-16T15:00:41.455Z,91.74
2018-12-16T15:03:24.142Z,91.98
2018-12-16T15:05:52.534Z,92.08
2018-12-16T15:08:37.875Z,91.99
2018-12-16T15:11:14.827Z,91.50
2018-12-16T15:13:50.666Z,91.58
2018-12-16T15:16:32.659Z,91.74
2018-12-16T15:19:17.512Z,91.27
2018-12-16T15:21:46.303Z,90.85
2018-12-16T15:24:14.622Z,91.72
2018-12-16T15:26:59.418Z,91.90
2018-12-16T15:29:42.214Z,90.80
2018-12-16T15:32:14.577Z,91.10
2018-12-16T15:34:57.854Z,88.46
2018-12-16T15:37:39.479Z,87.51
2018-12-16T15:40:23.059Z,88.88
2018-12-16T15:43:06.376Z,88.07
2018-12-16T15:45:47.964Z,87.94
2018-12-16T15:48:32.778Z,86.20
2018-12-16T15:51:16.085Z,86.68
2018-12-16T15:53:59.106Z,85.56
2018-12-16T15:56:44.515Z,86.43
2018-12-16T15:59:33.947Z,85.09
2018-12-16T16:02:14.798Z,85.51
2018-12-16T16:04:58.173Z,85.20
2018-12-16T16:07:43.265Z,84.69
2018-12-16T16:10:26.120Z,84.13
2018-12-16T16:13:07.783Z,84.46
2018-12-16T16:15:49.016Z,85.37
2018-12-16T16:18:26.345Z,85.04
2018-12-16T16:21:15.849Z,84.80
2018-12-16T16:24:14.202Z,84.53
2018-12-16T16:26:57.776Z,84.58
2018-12-16T16:29:41.536Z,84.45
2018-12-16T16:32:27.551Z,84.53
2018-12-16T16:35:08.651Z,85.86
2018-12-16T16:37:52.050Z,86.13
2018-12-16T16:40:34.766Z,85.56
2018-12-16T16:43:30.931Z,85.57
2018-12-16T16:46:20.362Z,85.11
2018-12-16T16:48:56.467Z,85.68
2018-12-16T16:51:39.377Z,86.06
2018-12-16T16:54:33.613Z,85.58
2018-12-16T16:57:02.909Z,85.38
2018-12-16T16:59:45.107Z,86.27
2018-12-16T17:02:13.601Z,85.48
2018-12-16T17:05:07.450Z,86.08
2018-12-16T17:08:04.463Z,86.44
2018-12-16T17:10:33.170Z,85.81
2018-12-16T17:13:09.741Z,85.67
2018-12-16T17:15:45.574Z,85.48
2018-12-16T17:18:13.971Z,85.30
2018-12-16T17:20:57.686Z,84.46
2018-12-16T17:23:39.293Z,85.09
2018-12-16T17:26:16.440Z,85.08
2018-12-16T17:28:45.375Z,83.57
2018-12-16T17:31:35.894Z,83.15
2018-12-16T17:34:17.425Z,83.33
2018-12-16T17:36:54.137Z,83.54
2018-12-16T17:39:22.606Z,83.06
2018-12-16T17:41:51.115Z,84.43
2018-12-16T17:44:19.563Z,82.40
2018-12-16T17:46:47.997Z,80.41
2018-12-16T17:49:16.611Z,81.92
2018-12-16T17:51:45.049Z,81.24
2018-12-16T17:54:13.490Z,80.31
2018-12-16T17:56:41.877Z,80.80
2018-12-16T17:59:17.729Z,81.04
2018-12-16T18:01:43.599Z,81.18
2018-12-16T18:04:24.473Z,79.88
2018-12-16T18:06:53.087Z,79.33
2018-12-16T18:09:21.500Z,79.61
2018-12-16T18:11:49.928Z,80.19
2018-12-16T18:14:18.257Z,79.50
2018-12-16T18:16:46.777Z,79.40
2018-12-16T18:19:15.047Z,80.14
2018-12-16T18:21:53.561Z,79.47
2018-12-16T18:24:25.443Z,80.04
2018-12-16T18:26:54.039Z,79.33
2018-12-16T18:29:22.531Z,78.54
2018-12-16T18:31:51.276Z,77.81
2018-12-16T18:34:19.596Z,78.23
2018-12-16T18:36:48.515Z,80.05
2018-12-16T18:39:17.379Z,78.01
2018-12-16T18:41:46.219Z,79.88
2018-12-16T18:44:14.761Z,79.11
2018-12-16T18:46:43.417Z,78.84
2018-12-16T18:49:15.251Z,77.03
2018-12-16T18:51:44.544Z,78.65
2018-12-16T18:54:13.166Z,81.25
2018-12-16T18:56:42.009Z,76.53
2018-12-16T18:59:10.494Z,77.72
2018-12-16T19:01:38.822Z,78.56
2018-12-16T19:04:07.094Z,77.97
2018-12-16T19:06:35.471Z,77.38
2018-12-16T19:09:10.246Z,77.96
2018-12-16T19:11:38.556Z,77.68
2018-12-16T19:14:07.044Z,78.34
2018-12-16T19:16:36.260Z,77.08
2018-12-16T19:19:05.297Z,78.12
2018-12-16T19:21:34.039Z,77.29
2018-12-16T19:24:02.911Z,76.89
2018-12-16T19:26:31.557Z,78.21
2018-12-16T19:29:15.265Z,77.75
2018-12-16T19:31:44.136Z,77.25
2018-12-16T19:34:12.602Z,78.39
2018-12-16T19:37:03.014Z,77.39
2018-12-16T19:39:40.680Z,78.11
2018-12-16T19:42:14.489Z,76.61
2018-12-16T19:44:42.900Z,78.62
2018-12-16T19:47:22.047Z,77.30
2018-12-16T19:49:50.744Z,79.37
2018-12-16T19:52:19.034Z,78.92
2018-12-16T19:55:00.279Z,77.79
2018-12-16T19:57:28.758Z,77.37
2018-12-16T19:59:57.139Z,77.87
2018-12-16T20:02:25.573Z,77.47
2018-12-16T20:04:59.926Z,78.65
2018-12-16T20:07:28.432Z,76.79
2018-12-16T20:10:03.005Z,76.48
2018-12-16T20:12:31.515Z,77.54
2018-12-16T20:15:00.219Z,76.74
2018-12-16T20:17:28.741Z,77.25
2018-12-16T20:19:57.100Z,76.47
2018-12-16T20:22:26.188Z,76.48
2018-12-16T20:24:54.589Z,77.31
2018-12-16T20:27:22.857Z,78.53
2018-12-16T20:29:51.238Z,78.05
2018-12-16T20:32:19.885Z,79.04
2018-12-16T20:34:57.953Z,77.69
2018-12-16T20:37:43.228Z,78.55
2018-12-16T20:40:11.722Z,76.65
2018-12-16T20:42:40.519Z,79.06
2018-12-16T20:45:09.502Z,77.63
2018-12-16T20:47:38.816Z,79.22
2018-12-16T20:50:08.214Z,78.15
2018-12-16T20:52:36.674Z,77.75
2018-12-16T20:55:06.087Z,77.14
2018-12-16T20:57:34.496Z,78.91
2018-12-16T21:00:03.341Z,80.23
2018-12-16T21:02:31.914Z,80.43
2018-12-16T21:05:00.495Z,78.34
2018-12-16T21:07:41.537Z,77.25
2018-12-16T21:10:10.002Z,75.63
2018-12-16T21:13:46.339Z,76.21
2018-12-16T21:16:20.428Z,79.34
2018-12-16T21:18:48.859Z,76.82
2018-12-16T21:21:17.628Z,76.51
2018-12-16T21:23:46.184Z,76.22
2018-12-16T21:26:14.481Z,76.06
2018-12-16T21:28:42.797Z,78.31
2018-12-16T21:31:11.303Z,78.85
2018-12-16T21:33:39.786Z,77.34
2018-12-16T21:36:08.107Z,76.91
2018-12-16T21:38:36.703Z,77.75
2018-12-16T21:41:05.312Z,74.91
2018-12-16T21:43:34.870Z,74.48
2018-12-16T21:46:03.787Z,75.55
2018-12-16T21:48:32.336Z,75.52
2018-12-16T21:51:01.373Z,76.01
2018-12-16T21:53:30.507Z,77.32
2018-12-16T21:55:59.103Z,77.55
2018-12-16T21:58:27.623Z,75.67
2018-12-16T22:00:56.136Z,76.95
2018-12-16T22:03:25.089Z,75.50
2018-12-16T22:05:53.486Z,76.05
2018-12-16T22:08:22.073Z,76.17
2018-12-16T22:10:51.341Z,75.68
2018-12-16T22:13:19.980Z,75.68
2018-12-16T22:15:48.548Z,76.74
2018-12-16T22:18:17.216Z,75.65
2018-12-16T22:20:45.943Z,76.15
2018-12-16T22:23:14.617Z,75.96
2018-12-16T22:25:43.431Z,77.13
2018-12-16T22:28:12.372Z,77.00
2018-12-16T22:30:41.016Z,76.96
2018-12-16T22:33:09.911Z,73.97
2018-12-16T22:35:38.312Z,72.91
2018-12-16T22:38:07.467Z,75.01
2018-12-16T22:40:35.961Z,75.59
2018-12-16T22:43:04.499Z,74.63
2018-12-16T22:45:32.900Z,76.08
2018-12-16T22:48:01.336Z,74.78
2018-12-16T22:50:29.854Z,73.84
2018-12-16T22:52:58.290Z,76.67
2018-12-16T22:55:26.897Z,75.71
2018-12-16T22:57:55.723Z,76.71
2018-12-16T23:00:25.113Z,76.21
2018-12-16T23:02:54.064Z,76.41
2018-12-16T23:05:22.556Z,75.55
2018-12-16T23:07:51.480Z,74.75
2018-12-16T23:10:20.077Z,74.83
2018-12-16T23:12:48.877Z,75.30
2018-12-16T23:15:17.480Z,76.29
2018-12-16T23:17:46.123Z,76.31
2018-12-16T23:20:19.796Z,73.63
2018-12-16T23:22:48.715Z,75.54
2018-12-16T23:25:28.097Z,76.69
2018-12-16T23:27:57.101Z,73.34
2018-12-16T23:30:25.597Z,73.84
2018-12-16T23:32:54.123Z,74.99
2018-12-16T23:35:22.706Z,75.88
2018-12-16T23:37:51.086Z,75.84
2018-12-16T23:40:19.802Z,74.09
2018-12-16T23:42:48.087Z,75.34
2018-12-16T23:45:16.449Z,74.60
2018-12-16T23:47:45.358Z,76.38
2018-12-16T23:50:13.633Z,75.90
2018-12-16T23:52:42.119Z,76.14
2018-12-16T23:55:10.448Z,77.35
2018-12-16T23:57:38.816Z,76.49
